Time;durP1;ratioP1;P1;durP2;ratioP2;P2;SDS_P1;SDS_P2;PMS_P1;PMS_P2;Temp;Humidity;BMP_temperature;BMP_pressure;BME280_temperature;BME280_humidity;BME280_pressure;Samples;Min_cycle;Max_cycle;Signal;HPM_P1;HPM_P2
2021/05/21 00:00:00;;;;;;;1.67;1.00;;;12.10;99.90;;;;;;5045213;28;20222;-93
2021/05/21 00:02:26;;;;;;;1.00;0.90;;;12.10;99.90;;;;;;5023584;28;20195;-92
2021/05/21 00:04:52;;;;;;;1.03;1.03;;;12.10;99.90;;;;;;5017355;28;20214;-90
2021/05/21 00:07:18;;;;;;;2.73;1.27;;;12.10;99.90;;;;;;5035718;28;20368;-88
2021/05/21 00:09:44;;;;;;;2.80;1.07;;;12.00;99.90;;;;;;5034964;28;21037;-89
2021/05/21 00:12:10;;;;;;;11.27;1.80;;;11.90;99.90;;;;;;5021572;28;20214;-90
2021/05/21 00:14:35;;;;;;;3.50;1.10;;;11.90;99.90;;;;;;5037246;28;20181;-90
2021/05/21 00:17:01;;;;;;;1.10;1.07;;;11.80;99.90;;;;;;4991871;28;20666;-90
2021/05/21 00:19:27;;;;;;;1.93;1.30;;;11.70;99.90;;;;;;5032682;28;20289;-88
2021/05/21 00:21:53;;;;;;;1.80;1.60;;;11.60;99.90;;;;;;5015100;28;21057;-90
2021/05/21 00:24:18;;;;;;;1.00;1.00;;;11.60;99.90;;;;;;5021759;28;20803;-91
2021/05/21 00:26:44;;;;;;;3.67;1.67;;;11.60;99.90;;;;;;5017577;28;20233;-91
2021/05/21 00:29:10;;;;;;;3.57;1.17;;;11.50;99.90;;;;;;5035739;28;20194;-89
2021/05/21 00:31:36;;;;;;;1.43;1.17;;;11.50;99.90;;;;;;5035209;28;20274;-89
2021/05/21 00:34:01;;;;;;;1.87;1.60;;;11.50;99.90;;;;;;5032815;28;20299;-87
2021/05/21 00:36:27;;;;;;;1.37;1.27;;;11.50;99.90;;;;;;5033079;28;20214;-90
2021/05/21 00:38:53;;;;;;;0.80;0.80;;;11.50;99.90;;;;;;5001008;28;20664;-91
2021/05/21 00:41:22;;;;;;;2.57;1.07;;;11.40;99.90;;;;;;5019691;28;20183;-92
2021/05/21 00:43:52;;;;;;;1.27;1.00;;;11.40;99.90;;;;;;5035406;28;20317;-93
2021/05/21 00:46:17;;;;;;;2.80;1.20;;;11.40;99.90;;;;;;5032682;28;20304;-92
2021/05/21 00:48:43;;;;;;;1.10;1.00;;;11.40;99.90;;;;;;5034347;28;20252;-92
2021/05/21 00:51:09;;;;;;;1.77;0.73;;;11.40;99.90;;;;;;4999362;28;20651;-94
2021/05/21 00:53:37;;;;;;;5.13;0.80;;;11.40;99.90;;;;;;5017681;28;20191;-91
2021/05/21 00:56:03;;;;;;;1.27;1.00;;;11.50;99.90;;;;;;5033946;28;20743;-92
2021/05/21 00:58:31;;;;;;;2.17;1.13;;;11.70;99.90;;;;;;5017516;28;20267;-92
2021/05/21 01:00:57;;;;;;;1.03;0.80;;;11.80;99.90;;;;;;5041026;28;20233;-91
2021/05/21 01:03:23;;;;;;;1.80;1.60;;;11.80;99.90;;;;;;5028514;28;20220;-93
2021/05/21 01:05:49;;;;;;;1.00;0.90;;;11.90;99.90;;;;;;5016396;28;20211;-92
2021/05/21 01:08:16;;;;;;;4.50;1.20;;;11.90;99.90;;;;;;5035842;28;20214;-92
2021/05/21 01:10:42;;;;;;;1.30;1.20;;;11.90;99.90;;;;;;5032531;28;20215;-93
2021/05/21 01:13:08;;;;;;;2.57;1.13;;;11.80;99.90;;;;;;5017923;28;20248;-92
2021/05/21 01:15:40;;;;;;;6.93;1.90;;;11.90;99.90;;;;;;5017744;28;20290;-92
2021/05/21 01:18:08;;;;;;;0.73;0.73;;;11.90;99.90;;;;;;5033843;28;20222;-93
2021/05/21 01:20:36;;;;;;;4.07;1.03;;;11.90;99.90;;;;;;5033840;28;20195;-92
2021/05/21 01:23:03;;;;;;;2.57;1.33;;;11.90;99.90;;;;;;5035255;28;20193;-91
2021/05/21 01:25:30;;;;;;;0.80;0.57;;;11.90;99.90;;;;;;5049709;28;20234;-91
2021/05/21 01:27:57;;;;;;;1.20;1.07;;;11.90;99.90;;;;;;5016699;28;20226;-91
2021/05/21 01:30:23;;;;;;;1.10;0.70;;;11.90;99.90;;;;;;5032391;28;20248;-88
2021/05/21 01:32:49;;;;;;;5.73;1.47;;;11.80;99.90;;;;;;5053717;28;20186;-90
2021/05/21 01:35:18;;;;;;;3.70;1.27;;;11.70;99.90;;;;;;5035437;28;20230;-93
2021/05/21 01:37:45;;;;;;;2.20;1.47;;;11.60;99.90;;;;;;5030891;28;20230;-91
2021/05/21 01:40:12;;;;;;;1.33;0.80;;;11.60;99.90;;;;;;5016188;28;20303;-90
2021/05/21 01:42:42;;;;;;;5.53;1.00;;;11.50;99.90;;;;;;5020325;28;20222;-91
2021/05/21 01:45:10;;;;;;;5.10;1.93;;;11.50;99.90;;;;;;5012809;28;20253;-92
2021/05/21 01:47:36;;;;;;;1.07;0.83;;;11.40;99.90;;;;;;5028027;28;20230;-94
2021/05/21 01:50:05;;;;;;;13.27;2.53;;;11.40;99.90;;;;;;5028789;28;20190;-90
2021/05/21 01:52:30;;;;;;;5.90;1.37;;;11.30;99.90;;;;;;5030602;28;20223;-89
2021/05/21 01:54:56;;;;;;;2.63;0.83;;;11.30;99.90;;;;;;5044940;28;20229;-93
2021/05/21 01:57:23;;;;;;;2.13;0.87;;;11.20;99.90;;;;;;5031722;28;20456;-90
2021/05/21 01:59:48;;;;;;;1.90;1.03;;;11.10;99.90;;;;;;5033193;28;20613;-90
2021/05/21 02:02:14;;;;;;;3.70;1.00;;;11.10;99.90;;;;;;5033648;28;20189;-89
2021/05/21 02:04:41;;;;;;;2.83;0.93;;;11.00;99.90;;;;;;5002743;28;20209;-90
2021/05/21 02:07:11;;;;;;;2.90;1.37;;;11.00;99.90;;;;;;5039773;28;20276;-91
2021/05/21 02:09:58;;;;;;;4.37;0.80;;;11.00;99.90;;;;;;5030722;28;20222;-91
2021/05/21 02:12:25;;;;;;;6.00;1.53;;;11.00;99.90;;;;;;5019530;28;20235;-92
2021/05/21 02:14:52;;;;;;;4.80;1.57;;;11.00;99.90;;;;;;5032540;28;20785;-92
2021/05/21 02:17:18;;;;;;;8.43;1.07;;;11.00;99.90;;;;;;5034913;28;20174;-90
2021/05/21 02:19:44;;;;;;;3.90;1.20;;;10.90;99.90;;;;;;5049377;28;20595;-92
2021/05/21 02:22:10;;;;;;;2.50;1.63;;;10.90;99.90;;;;;;5030328;28;20690;-93
2021/05/21 02:24:37;;;;;;;2.63;1.07;;;10.90;99.90;;;;;;5020913;28;20207;-92
2021/05/21 02:27:03;;;;;;;3.30;1.43;;;10.80;99.90;;;;;;5034616;28;20295;-93
2021/05/21 02:29:32;;;;;;;3.07;1.00;;;10.80;99.90;;;;;;5021313;28;20281;-93
2021/05/21 02:31:58;;;;;;;1.67;1.10;;;10.80;99.90;;;;;;5035458;28;20210;-92
2021/05/21 02:34:24;;;;;;;1.43;0.80;;;10.80;99.90;;;;;;5016723;28;20238;-92
2021/05/21 02:36:50;;;;;;;3.30;1.10;;;10.70;99.90;;;;;;5034762;28;20320;-93
2021/05/21 02:39:18;;;;;;;2.00;1.27;;;10.60;99.90;;;;;;5036210;28;20666;-92
2021/05/21 02:41:46;;;;;;;1.20;0.77;;;10.60;99.90;;;;;;5037094;28;21190;-94
2021/05/21 02:44:14;;;;;;;3.27;1.73;;;10.50;99.90;;;;;;5034870;28;20209;-92
2021/05/21 02:46:40;;;;;;;2.60;1.80;;;10.40;99.90;;;;;;5034226;28;20384;-92
2021/05/21 02:49:06;;;;;;;2.57;0.57;;;10.40;99.90;;;;;;5052338;28;20231;-92
2021/05/21 02:51:35;;;;;;;4.00;1.80;;;10.30;99.90;;;;;;5034217;28;20773;-92
2021/05/21 02:54:03;;;;;;;3.37;1.67;;;10.30;99.90;;;;;;5033320;28;20224;-93
2021/05/21 02:56:29;;;;;;;2.40;1.03;;;10.20;99.90;;;;;;5020949;28;20186;-91
2021/05/21 02:58:55;;;;;;;5.33;1.07;;;10.20;99.90;;;;;;5034611;28;20294;-93
2021/05/21 03:01:20;;;;;;;6.33;1.67;;;10.20;99.90;;;;;;5034147;28;20386;-93
2021/05/21 03:03:46;;;;;;;4.70;1.40;;;10.20;99.90;;;;;;5032934;28;20937;-92
2021/05/21 03:06:15;;;;;;;8.50;2.23;;;10.10;99.90;;;;;;5035302;28;20237;-92
2021/05/21 03:08:41;;;;;;;3.23;1.37;;;10.00;99.90;;;;;;5022552;28;20182;-91
2021/05/21 03:11:07;;;;;;;7.73;1.10;;;10.00;99.90;;;;;;5036429;28;21018;-93
2021/05/21 03:13:33;;;;;;;6.90;1.90;;;10.00;99.90;;;;;;5034421;28;20564;-92
2021/05/21 03:15:58;;;;;;;1.63;0.80;;;10.00;99.90;;;;;;5048788;28;20228;-92
2021/05/21 03:18:24;;;;;;;8.83;1.37;;;10.00;99.90;;;;;;5033900;28;20586;-92
2021/05/21 03:20:51;;;;;;;4.03;2.53;;;10.00;99.90;;;;;;5017281;28;20237;-91
2021/05/21 03:23:18;;;;;;;2.97;1.20;;;10.00;99.90;;;;;;5034717;28;20215;-92
2021/05/21 03:25:47;;;;;;;2.83;1.97;;;10.00;99.90;;;;;;5017971;28;20280;-92
2021/05/21 03:28:14;;;;;;;6.53;1.43;;;10.00;99.90;;;;;;5035091;28;20210;-92
2021/05/21 03:30:41;;;;;;;4.17;1.03;;;10.00;99.90;;;;;;5034612;28;20217;-92
2021/05/21 03:33:08;;;;;;;2.03;0.93;;;10.10;99.90;;;;;;5050108;28;20801;-93
2021/05/21 03:35:35;;;;;;;5.67;1.40;;;10.10;99.90;;;;;;5034311;28;20608;-93
2021/05/21 03:38:06;;;;;;;6.43;1.97;;;10.10;99.90;;;;;;5036797;28;20216;-93
2021/05/21 03:40:36;;;;;;;7.60;2.37;;;10.10;99.90;;;;;;5032536;28;20217;-93
2021/05/21 03:43:03;;;;;;;4.93;1.80;;;10.10;99.90;;;;;;5008243;28;20221;-93
2021/05/21 03:45:29;;;;;;;8.10;2.53;;;10.10;99.90;;;;;;5035248;28;20212;-92
2021/05/21 03:47:55;;;;;;;9.27;1.60;;;10.10;99.90;;;;;;5041889;28;20746;-92
2021/05/21 03:50:22;;;;;;;4.83;1.37;;;10.10;99.90;;;;;;5035382;28;20186;-92
2021/05/21 03:52:48;;;;;;;6.57;1.80;;;10.10;99.90;;;;;;5017082;28;20223;-92
2021/05/21 03:55:19;;;;;;;9.43;2.33;;;10.10;99.90;;;;;;5051945;28;20217;-93
2021/05/21 03:57:48;;;;;;;1.03;0.67;;;10.10;99.90;;;;;;5051215;28;20221;-93
2021/05/21 04:00:16;;;;;;;6.87;2.83;;;10.20;99.90;;;;;;5051739;28;20237;-91
2021/05/21 04:02:44;;;;;;;7.13;1.83;;;10.20;99.90;;;;;;5050852;28;20182;-93
2021/05/21 04:05:11;;;;;;;1.17;1.03;;;10.30;99.90;;;;;;5029347;28;20289;-95
2021/05/21 04:07:36;;;;;;;5.00;1.40;;;10.30;99.90;;;;;;5010218;28;20275;-92
2021/05/21 04:10:03;;;;;;;5.63;1.73;;;10.30;99.90;;;;;;5020647;28;20304;-94
2021/05/21 04:12:29;;;;;;;2.93;1.97;;;10.30;99.90;;;;;;5028793;28;20218;-92
2021/05/21 04:14:56;;;;;;;5.77;3.03;;;10.40;99.90;;;;;;5030646;28;20868;-94
2021/05/21 04:17:22;;;;;;;4.63;1.20;;;10.50;99.90;;;;;;5031890;28;20198;-92
2021/05/21 04:19:49;;;;;;;9.37;2.07;;;10.60;99.90;;;;;;5017230;28;20230;-93
2021/05/21 04:22:17;;;;;;;16.87;2.60;;;10.70;99.90;;;;;;5026266;28;20218;-92
2021/05/21 04:24:43;;;;;;;15.00;2.37;;;11.00;99.90;;;;;;5022953;28;20221;-93
2021/05/21 04:27:09;;;;;;;6.93;2.30;;;11.10;99.90;;;;;;5036652;28;20288;-94
2021/05/21 04:29:35;;;;;;;15.30;2.67;;;11.20;99.90;;;;;;5034905;28;20183;-91
2021/05/21 04:32:02;;;;;;;10.83;2.20;;;11.30;99.90;;;;;;5038491;28;20189;-90
2021/05/21 04:34:28;;;;;;;1.53;1.43;;;11.30;99.90;;;;;;5033124;28;20308;-92
2021/05/21 04:36:54;;;;;;;7.53;1.57;;;11.40;99.90;;;;;;5013842;28;20251;-91
2021/05/21 04:39:20;;;;;;;7.73;2.93;;;11.50;99.90;;;;;;5029940;28;20725;-89
2021/05/21 04:41:46;;;;;;;6.33;2.40;;;11.50;99.90;;;;;;5015151;28;20187;-91
2021/05/21 04:44:12;;;;;;;4.53;1.67;;;11.50;99.90;;;;;;5008109;28;20230;-90
2021/05/21 04:46:38;;;;;;;10.40;2.40;;;11.40;99.90;;;;;;5032018;28;20601;-90
2021/05/21 04:49:04;;;;;;;9.53;2.00;;;11.40;99.90;;;;;;5015327;28;20229;-90
2021/05/21 04:51:30;;;;;;;3.37;1.17;;;11.40;99.90;;;;;;5033115;28;20211;-90
2021/05/21 04:53:59;;;;;;;3.80;1.47;;;11.50;99.90;;;;;;5034129;28;20225;-90
2021/05/21 04:56:25;;;;;;;6.57;1.57;;;11.80;99.90;;;;;;5034600;28;20222;-91
2021/05/21 04:58:51;;;;;;;4.17;2.40;;;11.80;99.90;;;;;;5049786;28;20781;-91
2021/05/21 05:01:17;;;;;;;5.43;2.10;;;11.90;99.90;;;;;;5034656;28;20226;-91
2021/05/21 05:03:43;;;;;;;7.53;2.03;;;11.90;99.90;;;;;;5052097;28;20344;-89
2021/05/21 05:06:10;;;;;;;3.90;1.40;;;12.00;99.90;;;;;;5016615;28;20233;-91
2021/05/21 05:08:36;;;;;;;9.73;3.20;;;12.10;99.90;;;;;;5033400;28;20662;-95
2021/05/21 05:11:02;;;;;;;5.10;1.23;;;12.30;99.90;;;;;;5017608;28;20221;-91
2021/05/21 05:13:28;;;;;;;13.33;1.53;;;12.40;99.90;;;;;;5000376;28;21078;-91
2021/05/21 05:15:54;;;;;;;9.83;2.40;;;12.60;99.90;;;;;;5038802;28;20222;-93
2021/05/21 05:18:20;;;;;;;6.43;1.83;;;12.80;99.90;;;;;;5026353;28;20213;-90
2021/05/21 05:20:47;;;;;;;0.83;0.80;;;13.10;99.90;;;;;;5019498;28;20602;-93
2021/05/21 05:23:13;;;;;;;14.00;1.70;;;13.10;99.90;;;;;;5049332;28;20198;-95
2021/05/21 05:25:43;;;;;;;17.83;2.17;;;12.70;99.90;;;;;;5046112;28;20234;-91
2021/05/21 05:28:09;;;;;;;5.30;1.97;;;12.40;99.90;;;;;;5047211;28;20233;-91
2021/05/21 05:30:35;;;;;;;7.83;1.43;;;12.30;99.90;;;;;;5032092;28;20214;-91
2021/05/21 05:33:01;;;;;;;7.20;1.73;;;12.30;99.90;;;;;;5049881;28;20226;-92
2021/05/21 05:35:26;;;;;;;4.37;1.50;;;12.40;99.90;;;;;;5047839;28;20320;-92
2021/05/21 05:37:52;;;;;;;8.80;1.33;;;12.40;99.90;;;;;;5029087;28;20234;-89
2021/05/21 05:40:18;;;;;;;10.63;2.90;;;12.40;99.90;;;;;;5030762;28;20215;-88
2021/05/21 05:42:44;;;;;;;18.57;3.40;;;12.20;99.90;;;;;;5010145;28;20222;-89
2021/05/21 05:45:10;;;;;;;8.60;2.20;;;12.20;99.90;;;;;;5018344;28;20291;-92
2021/05/21 05:47:36;;;;;;;12.50;3.23;;;12.10;99.90;;;;;;5016150;28;20682;-89
2021/05/21 05:50:03;;;;;;;7.67;2.87;;;12.00;99.90;;;;;;5019576;28;20190;-90
2021/05/21 05:52:29;;;;;;;3.70;2.73;;;12.00;99.90;;;;;;5037899;28;20213;-92
2021/05/21 05:54:55;;;;;;;2.23;1.47;;;11.90;99.90;;;;;;5032379;28;20283;-92
2021/05/21 05:57:21;;;;;;;4.67;2.00;;;11.90;99.90;;;;;;5005158;28;20256;-91
2021/05/21 05:59:46;;;;;;;3.57;1.93;;;11.90;99.90;;;;;;4986370;28;20183;-92
2021/05/21 06:02:15;;;;;;;1.60;1.43;;;11.90;99.90;;;;;;5019413;28;20186;-91
2021/05/21 06:04:40;;;;;;;4.70;1.07;;;11.80;99.90;;;;;;5023032;28;20232;-90
2021/05/21 06:07:06;;;;;;;7.07;2.80;;;11.80;99.90;;;;;;5044526;28;20603;-94
2021/05/21 06:09:32;;;;;;;1.80;1.00;;;11.70;99.90;;;;;;5046728;28;20666;-91
2021/05/21 06:11:58;;;;;;;0.80;0.80;;;11.70;99.90;;;;;;5035578;28;20213;-92
2021/05/21 06:14:24;;;;;;;9.07;1.83;;;11.60;99.90;;;;;;5053959;28;20189;-91
2021/05/21 06:16:50;;;;;;;9.57;1.47;;;11.60;99.90;;;;;;5010258;28;20230;-87
2021/05/21 06:19:16;;;;;;;5.00;1.30;;;11.60;99.90;;;;;;5052287;28;20213;-92
2021/05/21 06:21:42;;;;;;;1.53;1.27;;;11.50;99.90;;;;;;5024992;28;20198;-89
2021/05/21 06:24:09;;;;;;;2.97;1.40;;;11.50;99.90;;;;;;5021375;28;20556;-91
2021/05/21 06:26:44;;;;;;;2.10;1.23;;;11.50;99.90;;;;;;5031155;28;20694;-92
2021/05/21 06:29:10;;;;;;;3.00;1.87;;;11.60;99.90;;;;;;5050545;28;20665;-89
2021/05/21 06:31:35;;;;;;;9.13;1.90;;;11.60;99.90;;;;;;5017551;28;20213;-91
2021/05/21 06:34:01;;;;;;;1.17;1.07;;;11.60;99.90;;;;;;5041254;28;20226;-93
2021/05/21 06:36:27;;;;;;;2.30;0.80;;;11.60;99.90;;;;;;5055034;28;20229;-89
2021/05/21 06:38:53;;;;;;;4.27;2.63;;;11.70;99.90;;;;;;5025480;28;20227;-89
2021/05/21 06:41:19;;;;;;;4.27;1.33;;;11.70;99.90;;;;;;5015836;28;20318;-91
2021/05/21 06:43:44;;;;;;;5.37;1.30;;;11.80;99.90;;;;;;5053867;28;20777;-93
2021/05/21 06:46:10;;;;;;;4.70;1.30;;;11.90;99.90;;;;;;5058585;28;20721;-90
2021/05/21 06:48:37;;;;;;;9.37;1.37;;;12.00;99.90;;;;;;5055918;28;20294;-90
2021/05/21 06:51:06;;;;;;;10.10;3.47;;;12.00;99.90;;;;;;5035278;28;20278;-89
2021/05/21 06:53:32;;;;;;;3.77;2.80;;;12.00;99.90;;;;;;5032741;28;20651;-88
2021/05/21 06:55:58;;;;;;;5.03;2.37;;;12.00;99.90;;;;;;5036762;28;20321;-87
2021/05/21 06:58:26;;;;;;;2.67;2.47;;;12.00;99.90;;;;;;5034921;28;20245;-93
2021/05/21 07:00:53;;;;;;;3.27;1.47;;;12.00;99.90;;;;;;5051100;28;20218;-91
2021/05/21 07:03:19;;;;;;;7.23;2.13;;;12.10;99.90;;;;;;5037036;28;20312;-92
2021/05/21 07:05:49;;;;;;;8.93;2.50;;;12.10;99.90;;;;;;5042937;28;20213;-92
2021/05/21 07:08:16;;;;;;;6.60;1.23;;;12.10;99.90;;;;;;5040210;28;21137;-93
2021/05/21 07:10:42;;;;;;;6.40;1.53;;;12.10;99.90;;;;;;5033412;28;20221;-94
2021/05/21 07:13:09;;;;;;;2.70;2.23;;;12.10;99.90;;;;;;5017320;28;20206;-92
2021/05/21 07:15:36;;;;;;;8.00;2.00;;;12.10;99.90;;;;;;5033572;28;20219;-92
2021/05/21 07:18:01;;;;;;;1.50;1.40;;;12.00;99.90;;;;;;5039033;28;20220;-91
2021/05/21 07:20:27;;;;;;;5.40;1.50;;;12.10;99.90;;;;;;5038121;28;20185;-89
2021/05/21 07:22:53;;;;;;;12.83;2.47;;;12.30;99.90;;;;;;5034341;28;20221;-92
2021/05/21 07:25:19;;;;;;;14.83;4.00;;;12.40;99.90;;;;;;5016268;28;20245;-92
2021/05/21 07:27:44;;;;;;;3.97;2.60;;;12.40;99.90;;;;;;5033580;28;20713;-92
2021/05/21 07:30:11;;;;;;;3.30;2.20;;;12.30;99.90;;;;;;5015598;28;20279;-92
2021/05/21 07:32:36;;;;;;;6.47;2.13;;;12.30;99.90;;;;;;5055942;28;20186;-90
2021/05/21 07:35:03;;;;;;;3.87;1.33;;;12.40;99.90;;;;;;5045413;28;20711;-90
2021/05/21 07:37:29;;;;;;;13.67;2.90;;;12.20;99.90;;;;;;5050739;28;20259;-91
2021/05/21 07:39:55;;;;;;;2.20;1.07;;;12.30;99.90;;;;;;5018441;28;20296;-89
2021/05/21 07:42:21;;;;;;;3.00;1.10;;;12.20;99.90;;;;;;5034377;28;20232;-92
2021/05/21 07:44:47;;;;;;;2.70;1.47;;;12.20;99.90;;;;;;5052344;28;20285;-90
2021/05/21 07:47:12;;;;;;;4.27;1.97;;;12.30;99.90;;;;;;5030127;28;20228;-93
2021/05/21 07:49:38;;;;;;;17.23;2.80;;;12.40;99.90;;;;;;5028438;28;20221;-92
2021/05/21 07:52:06;;;;;;;7.93;3.00;;;12.40;99.90;;;;;;5032372;28;20225;-93
2021/05/21 07:54:32;;;;;;;9.13;1.43;;;12.50;99.90;;;;;;5051987;28;20252;-91
2021/05/21 07:56:57;;;;;;;5.20;1.47;;;12.30;99.90;;;;;;5032615;28;21240;-90
2021/05/21 07:59:23;;;;;;;8.07;1.13;;;12.20;99.90;;;;;;5036417;28;20194;-91
2021/05/21 08:01:49;;;;;;;2.93;1.73;;;12.10;99.90;;;;;;5035397;28;20252;-90
2021/05/21 08:04:15;;;;;;;7.97;2.53;;;11.90;99.90;;;;;;5039825;28;20654;-90
2021/05/21 08:06:41;;;;;;;10.50;2.70;;;11.90;99.90;;;;;;5018089;28;20229;-92
2021/05/21 08:09:08;;;;;;;5.07;1.67;;;11.70;99.90;;;;;;5037252;28;20224;-90
2021/05/21 08:11:34;;;;;;;7.10;1.40;;;11.70;99.90;;;;;;5034541;28;20179;-93
2021/05/21 08:14:00;;;;;;;8.43;1.57;;;11.60;99.90;;;;;;5020568;28;20197;-92
2021/05/21 08:16:28;;;;;;;2.23;1.20;;;11.60;99.90;;;;;;5039635;28;20222;-92
2021/05/21 08:18:55;;;;;;;0.87;0.73;;;11.60;99.90;;;;;;5035379;28;20248;-92
2021/05/21 08:21:25;;;;;;;11.90;2.33;;;11.60;99.90;;;;;;5036404;28;20217;-92
2021/05/21 08:23:50;;;;;;;7.23;1.53;;;11.70;99.90;;;;;;5056219;28;21789;-93
2021/05/21 08:26:17;;;;;;;8.47;1.67;;;11.90;99.90;;;;;;5057625;28;20211;-93
2021/05/21 08:28:44;;;;;;;4.47;1.40;;;12.10;99.90;;;;;;5034512;28;20232;-94
2021/05/21 08:31:10;;;;;;;10.20;2.10;;;12.30;99.90;;;;;;5054105;28;20252;-95
2021/05/21 08:33:43;;;;;;;6.47;1.90;;;12.30;99.90;;;;;;5056292;28;20272;-93
2021/05/21 08:36:13;;;;;;;6.33;1.93;;;12.20;99.90;;;;;;5053257;28;21055;-94
2021/05/21 08:38:43;;;;;;;3.30;1.93;;;12.30;99.90;;;;;;5041958;28;20605;-93
2021/05/21 08:41:17;;;;;;;7.93;2.20;;;12.40;99.90;;;;;;5034303;28;20201;-95
2021/05/21 08:43:46;;;;;;;4.60;2.77;;;12.20;99.90;;;;;;5049802;28;20218;-93
2021/05/21 08:46:13;;;;;;;0.93;0.73;;;12.50;99.90;;;;;;5047270;28;20221;-93
2021/05/21 08:48:40;;;;;;;6.17;2.93;;;12.60;99.90;;;;;;5023834;28;20234;-95
2021/05/21 08:51:09;;;;;;;9.53;1.50;;;12.50;99.90;;;;;;5025719;28;20756;-92
2021/05/21 08:53:38;;;;;;;8.30;2.80;;;12.50;99.90;;;;;;5016767;28;20198;-93
2021/05/21 08:56:08;;;;;;;4.53;1.47;;;12.50;99.90;;;;;;5031490;28;20205;-93
2021/05/21 08:58:34;;;;;;;14.10;3.27;;;12.40;99.90;;;;;;5034135;28;20214;-96
2021/05/21 09:01:01;;;;;;;8.80;2.33;;;12.50;99.90;;;;;;5023432;28;20221;-93
2021/05/21 09:03:28;;;;;;;4.87;1.97;;;12.50;99.90;;;;;;5035613;28;20210;-94
2021/05/21 09:06:16;;;;;;;9.03;1.87;;;12.50;99.90;;;;;;5034719;28;20341;-94
2021/05/21 09:08:48;;;;;;;5.63;1.87;;;12.60;99.90;;;;;;5035321;28;20182;-93
2021/05/21 09:11:25;;;;;;;5.03;2.60;;;12.70;99.90;;;;;;5037246;28;20182;-93
2021/05/21 09:13:56;;;;;;;6.10;1.60;;;12.90;99.90;;;;;;5013641;28;20223;-93
2021/05/21 09:16:23;;;;;;;6.60;2.03;;;12.90;99.90;;;;;;5032256;28;20305;-93
2021/05/21 09:19:04;;;;;;;6.23;2.93;;;13.00;99.90;;;;;;5031059;28;20219;-92
2021/05/21 09:22:07;;;;;;;4.43;1.43;;;13.00;99.90;;;;;;5032721;28;20218;-93
2021/05/21 09:24:36;;;;;;;6.40;2.33;;;13.00;99.90;;;;;;5031819;28;20275;-91
2021/05/21 09:27:04;;;;;;;11.53;2.47;;;13.00;99.90;;;;;;5024071;28;20232;-92
2021/05/21 09:29:34;;;;;;;4.90;1.70;;;13.10;99.90;;;;;;5053562;28;20197;-92
2021/05/21 09:32:13;;;;;;;27.73;2.80;;;13.10;99.90;;;;;;5036976;28;20217;-91
2021/05/21 09:34:39;;;;;;;10.00;1.67;;;13.00;99.90;;;;;;5033504;28;20221;-90
2021/05/21 09:37:05;;;;;;;6.60;2.27;;;13.00;99.90;;;;;;5036187;28;20232;-91
2021/05/21 09:39:31;;;;;;;6.53;3.57;;;13.20;99.90;;;;;;5019581;28;20218;-92
2021/05/21 09:41:58;;;;;;;5.80;2.30;;;13.30;99.90;;;;;;5032581;28;20240;-92
2021/05/21 09:44:25;;;;;;;11.10;1.90;;;13.50;99.90;;;;;;5035317;28;20185;-91
2021/05/21 09:46:52;;;;;;;14.93;3.93;;;13.40;99.90;;;;;;5049456;28;20226;-92
2021/05/21 09:49:37;;;;;;;10.90;2.93;;;13.50;99.90;;;;;;5018848;28;20266;-92
2021/05/21 09:52:09;;;;;;;13.13;3.10;;;13.70;99.90;;;;;;5053333;28;20217;-92
2021/05/21 09:55:08;;;;;;;12.43;5.17;;;13.90;99.90;;;;;;5034197;28;20291;-93
2021/05/21 09:57:35;;;;;;;7.83;3.60;;;14.00;99.90;;;;;;5008693;28;20224;-93
2021/05/21 10:00:10;;;;;;;12.17;2.53;;;14.10;99.90;;;;;;5034955;28;20224;-91
2021/05/21 10:02:36;;;;;;;9.43;1.83;;;13.90;99.90;;;;;;5038814;28;20754;-94
2021/05/21 10:05:06;;;;;;;3.73;2.13;;;14.10;99.90;;;;;;5036767;28;20197;-92
2021/05/21 10:07:32;;;;;;;10.50;1.77;;;14.00;99.90;;;;;;5052458;28;20253;-93
2021/05/21 10:09:58;;;;;;;3.73;1.80;;;13.80;99.90;;;;;;5035047;28;20225;-91
2021/05/21 10:12:25;;;;;;;13.43;2.50;;;13.70;99.90;;;;;;5052272;28;20213;-93
2021/05/21 10:14:51;;;;;;;6.47;1.27;;;13.70;99.90;;;;;;5037364;28;20312;-93
2021/05/21 10:17:25;;;;;;;6.87;1.57;;;13.80;99.90;;;;;;5039770;28;20280;-91
2021/05/21 10:19:55;;;;;;;9.67;1.63;;;14.20;99.90;;;;;;5055111;28;20303;-93
2021/05/21 10:22:47;;;;;;;5.23;1.93;;;14.20;99.90;;;;;;5058711;28;20967;-93
2021/05/21 10:25:27;;;;;;;4.97;0.87;;;14.40;99.90;;;;;;5032388;28;20267;-92
2021/05/21 10:27:56;;;;;;;9.30;1.13;;;14.20;99.90;;;;;;5035530;28;20279;-92
2021/05/21 10:30:26;;;;;;;6.43;2.03;;;14.10;99.90;;;;;;5036505;28;20257;-92
2021/05/21 10:33:15;;;;;;;3.77;1.13;;;14.30;99.90;;;;;;5036951;28;20309;-90
2021/05/21 10:35:41;;;;;;;1.50;0.90;;;14.30;99.90;;;;;;5018871;28;20659;-93
2021/05/21 10:38:26;;;;;;;6.63;1.27;;;14.30;99.90;;;;;;5036826;28;20197;-93
2021/05/21 10:41:17;;;;;;;6.93;1.63;;;14.40;99.90;;;;;;5053391;28;20216;-92
2021/05/21 10:43:54;;;;;;;6.93;1.57;;;14.50;99.90;;;;;;5054741;28;20221;-94
2021/05/21 10:46:22;;;;;;;2.07;1.23;;;14.90;99.90;;;;;;5037664;28;20317;-93
2021/05/21 10:48:58;;;;;;;7.30;1.83;;;15.10;99.90;;;;;;5036070;28;20222;-88
2021/05/21 10:51:26;;;;;;;11.30;2.40;;;14.80;99.90;;;;;;5035837;28;20333;-92
2021/05/21 10:54:29;;;;;;;7.97;1.47;;;14.50;99.90;;;;;;5027208;28;20295;-93
2021/05/21 10:57:10;;;;;;;6.93;1.83;;;13.50;99.90;;;;;;5045679;28;20228;-94
2021/05/21 10:59:39;;;;;;;10.47;1.83;;;13.20;99.90;;;;;;5046535;28;20197;-94
2021/05/21 11:02:05;;;;;;;9.13;1.63;;;13.20;99.90;;;;;;5030065;28;20205;-93
2021/05/21 11:04:31;;;;;;;5.93;2.17;;;13.50;99.90;;;;;;5010801;28;20221;-93
2021/05/21 11:06:57;;;;;;;3.87;1.50;;;13.60;99.90;;;;;;5027815;28;20235;-92
2021/05/21 11:09:31;;;;;;;5.57;2.20;;;13.70;99.90;;;;;;5010460;28;20737;-93
2021/05/21 11:12:04;;;;;;;2.13;1.60;;;13.70;99.90;;;;;;5046021;28;20227;-94
2021/05/21 11:14:33;;;;;;;10.13;2.10;;;13.60;99.90;;;;;;5030580;28;20260;-93
2021/05/21 11:17:07;;;;;;;8.13;2.50;;;13.90;99.90;;;;;;5053549;28;20229;-94
2021/05/21 11:19:34;;;;;;;5.77;2.10;;;14.30;99.90;;;;;;5034324;28;20256;-94
2021/05/21 11:22:18;;;;;;;7.57;1.43;;;14.40;99.90;;;;;;5050446;28;20221;-94
2021/05/21 11:24:46;;;;;;;4.80;1.67;;;14.30;99.90;;;;;;5050735;28;20307;-93
2021/05/21 11:27:14;;;;;;;3.27;1.73;;;14.10;99.90;;;;;;5035869;28;20233;-93
2021/05/21 11:29:50;;;;;;;7.97;1.40;;;13.90;99.90;;;;;;5034838;28;20185;-94
2021/05/21 11:32:18;;;;;;;4.80;1.47;;;13.90;99.90;;;;;;5055011;28;20216;-94
2021/05/21 11:34:45;;;;;;;10.77;1.00;;;14.20;99.90;;;;;;5033291;28;20217;-93
2021/05/21 11:37:29;;;;;;;2.40;0.97;;;14.50;99.90;;;;;;5052397;28;20326;-91
2021/05/21 11:39:55;;;;;;;7.07;1.43;;;14.60;99.90;;;;;;5036455;28;20314;-94
2021/05/21 11:42:22;;;;;;;2.50;1.67;;;14.40;99.90;;;;;;5055239;28;20363;-93
2021/05/21 11:44:58;;;;;;;6.13;2.13;;;14.10;99.90;;;;;;5041621;28;20544;-94
2021/05/21 11:47:27;;;;;;;10.90;1.50;;;13.70;99.90;;;;;;5012016;28;20219;-95
2021/05/21 11:49:54;;;;;;;7.87;1.70;;;13.60;99.90;;;;;;5044358;28;20214;-90
2021/05/21 11:52:20;;;;;;;3.90;1.10;;;13.80;99.90;;;;;;5053812;28;20221;-92
2021/05/21 11:54:46;;;;;;;5.27;1.67;;;14.10;99.90;;;;;;5036710;28;20213;-94
2021/05/21 11:57:23;;;;;;;3.33;0.97;;;14.10;99.90;;;;;;5031942;28;20693;-93
2021/05/21 11:59:50;;;;;;;1.53;1.27;;;14.10;99.90;;;;;;5034722;28;20193;-92
2021/05/21 12:02:16;;;;;;;5.70;1.67;;;13.80;99.90;;;;;;5038276;28;20182;-92
2021/05/21 12:04:46;;;;;;;3.33;1.27;;;13.80;99.90;;;;;;5038832;28;20218;-90
2021/05/21 12:07:21;;;;;;;4.03;1.90;;;13.80;99.90;;;;;;5036413;28;20230;-94
2021/05/21 12:10:03;;;;;;;4.20;1.67;;;13.80;99.90;;;;;;5052805;28;20228;-91
2021/05/21 12:12:30;;;;;;;8.67;2.93;;;14.00;99.90;;;;;;5031853;28;20223;-91
2021/05/21 12:15:28;;;;;;;10.33;1.90;;;14.00;99.90;;;;;;5052418;28;20284;-90
2021/05/21 12:17:54;;;;;;;2.23;1.30;;;13.60;99.90;;;;;;4995346;28;20317;-91
2021/05/21 12:20:21;;;;;;;2.80;1.83;;;13.50;99.90;;;;;;5019467;28;20327;-91
2021/05/21 12:23:18;;;;;;;2.30;2.00;;;13.40;99.90;;;;;;5032240;28;20255;-90
2021/05/21 12:25:44;;;;;;;3.23;1.20;;;13.70;99.90;;;;;;5019291;28;20222;-90
2021/05/21 12:28:11;;;;;;;6.00;1.67;;;14.00;99.90;;;;;;5032318;28;20564;-91
2021/05/21 12:30:38;;;;;;;7.83;1.40;;;14.40;99.90;;;;;;5048693;28;20218;-91
2021/05/21 12:33:11;;;;;;;3.17;1.53;;;14.50;99.90;;;;;;5030791;28;20242;-91
2021/05/21 12:35:41;;;;;;;5.60;1.20;;;14.40;99.90;;;;;;5031341;28;20248;-92
2021/05/21 12:38:09;;;;;;;2.60;1.27;;;14.40;99.90;;;;;;5014457;28;20190;-89
2021/05/21 12:40:48;;;;;;;5.27;1.67;;;14.60;99.90;;;;;;5028357;28;20225;-91
2021/05/21 12:43:16;;;;;;;2.03;0.87;;;14.60;99.90;;;;;;5013270;28;20213;-93
2021/05/21 12:45:54;;;;;;;4.73;1.53;;;14.50;99.90;;;;;;5013522;28;20230;-90
2021/05/21 12:48:29;;;;;;;6.47;1.90;;;14.60;99.90;;;;;;5030334;28;20349;-94
2021/05/21 12:50:55;;;;;;;4.50;1.50;;;14.60;99.90;;;;;;5029441;28;20622;-92